Time;durP1;ratioP1;P1;durP2;ratioP2;P2;SDS_P1;SDS_P2;PMS_P1;PMS_P2;Temp;Humidity;BMP_temperature;BMP_pressure;BME280_temperature;BME280_humidity;BME280_pressure;Samples;Min_cycle;Max_cycle;Signal;HPM_P1;HPM_P2
2021/07/16 00:00:09;;;;;;;6.07;5.50;;;16.40;99.90;;;;;;6250273;23;20418;-82
2021/07/16 00:02:36;;;;;;;6.50;4.87;;;16.40;99.90;;;;;;6250192;23;20527;-83
2021/07/16 00:05:04;;;;;;;5.60;4.70;;;16.40;99.90;;;;;;6250574;23;20435;-83
2021/07/16 00:07:31;;;;;;;6.67;5.00;;;16.30;99.90;;;;;;6250312;23;20408;-83
2021/07/16 00:09:58;;;;;;;7.23;6.63;;;16.30;99.90;;;;;;6250553;23;20434;-83
2021/07/16 00:12:25;;;;;;;6.70;6.20;;;16.20;99.90;;;;;;6250265;23;20415;-83
2021/07/16 00:14:51;;;;;;;7.53;7.03;;;16.10;99.90;;;;;;6250550;23;20429;-83
2021/07/16 00:17:18;;;;;;;5.63;5.13;;;16.10;99.90;;;;;;6250453;23;20423;-83
2021/07/16 00:19:45;;;;;;;5.87;5.47;;;16.10;99.90;;;;;;6250223;23;20405;-83
2021/07/16 00:22:13;;;;;;;6.17;5.67;;;16.10;99.90;;;;;;6250112;23;20441;-83
2021/07/16 00:24:40;;;;;;;6.00;5.50;;;16.10;99.90;;;;;;6250852;23;20436;-82
2021/07/16 00:27:06;;;;;;;6.63;5.83;;;16.10;99.90;;;;;;6250496;23;20408;-84
2021/07/16 00:29:33;;;;;;;6.27;5.40;;;16.10;99.90;;;;;;6250370;23;20408;-82
2021/07/16 00:32:00;;;;;;;6.00;5.40;;;16.00;99.90;;;;;;6250064;23;20406;-84
2021/07/16 00:34:27;;;;;;;6.40;5.83;;;16.00;99.90;;;;;;6251024;23;20749;-82
2021/07/16 00:36:53;;;;;;;9.13;6.60;;;16.00;99.90;;;;;;6250375;23;20413;-84
2021/07/16 00:39:24;;;;;;;8.23;7.43;;;15.90;99.90;;;;;;6250295;23;20418;-83
2021/07/16 00:41:51;;;;;;;6.87;6.37;;;15.90;99.90;;;;;;6250255;23;20393;-82
2021/07/16 00:44:19;;;;;;;7.13;6.50;;;15.90;99.90;;;;;;6249716;23;20450;-82
2021/07/16 00:46:46;;;;;;;5.83;5.27;;;15.80;99.90;;;;;;6250305;23;20408;-82
2021/07/16 00:49:13;;;;;;;6.87;6.27;;;15.80;99.90;;;;;;6250426;23;20415;-84
2021/07/16 00:51:40;;;;;;;7.13;6.63;;;15.80;99.90;;;;;;6249594;23;20409;-82
2021/07/16 00:54:07;;;;;;;7.17;6.47;;;15.80;99.90;;;;;;6250389;23;20432;-82
2021/07/16 00:56:35;;;;;;;6.57;5.93;;;15.80;99.90;;;;;;6249746;23;20419;-82
2021/07/16 00:59:03;;;;;;;7.43;6.73;;;15.80;99.90;;;;;;6250784;23;20742;-83
2021/07/16 01:01:30;;;;;;;6.40;5.90;;;15.80;99.90;;;;;;6250557;23;20414;-83
2021/07/16 01:03:57;;;;;;;7.77;7.13;;;15.80;99.90;;;;;;6250509;23;20782;-82
2021/07/16 01:06:23;;;;;;;6.17;5.67;;;15.70;99.90;;;;;;6250749;23;20412;-83
2021/07/16 01:08:50;;;;;;;7.80;6.83;;;15.70;99.90;;;;;;6250066;23;20409;-82
2021/07/16 01:11:17;;;;;;;8.03;6.60;;;15.70;99.90;;;;;;6249463;23;20471;-82
2021/07/16 01:13:45;;;;;;;6.03;5.63;;;15.70;99.90;;;;;;6250019;23;20446;-83
2021/07/16 01:16:12;;;;;;;6.17;5.63;;;15.70;99.90;;;;;;6250367;23;20415;-82
2021/07/16 01:18:39;;;;;;;6.57;5.97;;;15.70;99.90;;;;;;6250189;23;20401;-83
2021/07/16 01:21:06;;;;;;;9.50;6.43;;;15.70;99.90;;;;;;6249811;23;20409;-83
2021/07/16 01:23:34;;;;;;;6.00;5.60;;;15.70;99.90;;;;;;6249537;23;20452;-82
2021/07/16 01:26:01;;;;;;;7.03;6.30;;;15.70;99.90;;;;;;6250087;23;20411;-83
2021/07/16 01:28:28;;;;;;;6.23;5.63;;;15.60;99.90;;;;;;6249846;23;20409;-82
2021/07/16 01:30:55;;;;;;;11.83;7.23;;;15.60;99.90;;;;;;6249618;23;20451;-83
2021/07/16 01:33:23;;;;;;;5.70;5.20;;;15.60;99.90;;;;;;6249619;23;20408;-83
2021/07/16 01:35:50;;;;;;;5.90;5.40;;;15.50;99.90;;;;;;6249790;23;20408;-83
2021/07/16 01:38:17;;;;;;;6.40;5.90;;;15.50;99.90;;;;;;6250139;23;20404;-83
2021/07/16 01:40:46;;;;;;;7.10;6.47;;;15.50;99.90;;;;;;6249993;23;20412;-83
2021/07/16 01:43:13;;;;;;;6.50;5.93;;;15.50;99.90;;;;;;6249334;23;20440;-82
2021/07/16 01:45:42;;;;;;;6.77;6.03;;;15.50;99.90;;;;;;6249421;23;20396;-83
2021/07/16 01:48:11;;;;;;;7.40;6.80;;;15.40;99.90;;;;;;6249906;23;20403;-83
2021/07/16 01:50:39;;;;;;;6.90;6.30;;;15.50;99.90;;;;;;6249590;23;20416;-83
2021/07/16 01:53:07;;;;;;;7.13;6.50;;;15.50;99.90;;;;;;6251616;23;20407;-82
2021/07/16 01:55:35;;;;;;;8.73;7.93;;;15.50;99.90;;;;;;6251913;23;20408;-83
2021/07/16 01:58:06;;;;;;;8.63;7.83;;;15.50;99.90;;;;;;6251628;23;20404;-82
2021/07/16 02:00:35;;;;;;;7.50;6.80;;;15.50;99.90;;;;;;6251906;23;20402;-83
2021/07/16 02:03:04;;;;;;;7.70;6.70;;;15.60;99.90;;;;;;6252005;23;20471;-83
2021/07/16 02:05:32;;;;;;;7.37;6.80;;;15.60;99.90;;;;;;6251546;23;20415;-83
2021/07/16 02:08:01;;;;;;;7.33;6.67;;;15.50;99.90;;;;;;6251810;23;20420;-83
2021/07/16 02:10:28;;;;;;;6.90;6.20;;;15.50;99.90;;;;;;6251259;23;20429;-83
2021/07/16 02:12:55;;;;;;;7.60;6.90;;;15.60;99.90;;;;;;6250231;23;20423;-83
2021/07/16 02:15:27;;;;;;;6.90;6.30;;;15.60;99.90;;;;;;6251091;23;20434;-83
2021/07/16 02:17:54;;;;;;;6.70;6.20;;;15.70;99.90;;;;;;6251523;23;20400;-82
2021/07/16 02:20:23;;;;;;;6.47;5.80;;;15.70;99.90;;;;;;6250048;23;20408;-83
2021/07/16 02:22:51;;;;;;;7.37;6.70;;;15.70;99.90;;;;;;6249853;23;20436;-83
2021/07/16 02:25:19;;;;;;;7.07;6.43;;;15.70;99.90;;;;;;6249268;23;20439;-83
2021/07/16 02:27:46;;;;;;;7.47;6.87;;;15.70;99.90;;;;;;6249356;23;20442;-83
2021/07/16 02:30:14;;;;;;;8.73;7.83;;;15.80;99.90;;;;;;6248964;23;20400;-83
2021/07/16 02:32:43;;;;;;;6.27;5.77;;;15.80;99.90;;;;;;6248571;23;20404;-83
2021/07/16 02:35:11;;;;;;;6.60;6.03;;;15.80;99.90;;;;;;6249519;23;20927;-83
2021/07/16 02:37:39;;;;;;;6.00;5.40;;;15.80;99.90;;;;;;6249277;23;20404;-83
2021/07/16 02:40:08;;;;;;;6.40;5.87;;;15.80;99.90;;;;;;6250121;23;20415;-83
2021/07/16 02:42:35;;;;;;;6.80;6.20;;;15.80;99.90;;;;;;6250880;23;20414;-83
2021/07/16 02:45:05;;;;;;;7.17;6.53;;;15.80;99.90;;;;;;6250075;23;20954;-83
2021/07/16 02:47:32;;;;;;;7.10;6.33;;;15.80;99.90;;;;;;6251065;23;20418;-83
2021/07/16 02:50:00;;;;;;;7.27;6.50;;;15.80;99.90;;;;;;6250705;23;20410;-83
2021/07/16 02:52:27;;;;;;;12.70;7.37;;;15.80;99.90;;;;;;6250767;23;20416;-83
2021/07/16 02:54:53;;;;;;;7.67;6.60;;;15.80;99.90;;;;;;6250383;23;20428;-83
2021/07/16 02:57:20;;;;;;;7.80;7.10;;;15.80;99.90;;;;;;6251076;23;20406;-83
2021/07/16 02:59:47;;;;;;;7.43;6.73;;;15.80;99.90;;;;;;6249756;23;20409;-83
2021/07/16 03:02:13;;;;;;;8.00;7.23;;;15.70;99.90;;;;;;6249072;23;20412;-83
2021/07/16 03:04:40;;;;;;;8.17;7.37;;;15.70;99.90;;;;;;6248997;23;20455;-83
2021/07/16 03:07:08;;;;;;;7.80;7.10;;;15.80;99.90;;;;;;6249154;23;20409;-83
2021/07/16 03:09:35;;;;;;;8.93;8.03;;;15.80;99.90;;;;;;6249576;23;20904;-83
2021/07/16 03:12:03;;;;;;;9.23;7.80;;;15.80;99.90;;;;;;6248559;23;20408;-83
2021/07/16 03:14:30;;;;;;;8.40;7.60;;;15.80;99.90;;;;;;6249925;23;20424;-83
2021/07/16 03:16:56;;;;;;;8.87;7.97;;;15.80;99.90;;;;;;6248715;23;20419;-83
2021/07/16 03:19:23;;;;;;;9.00;8.10;;;15.80;99.90;;;;;;6249375;23;20499;-83
2021/07/16 03:21:50;;;;;;;8.17;7.47;;;15.80;99.90;;;;;;6248853;23;20408;-82
2021/07/16 03:24:19;;;;;;;11.40;8.67;;;15.80;99.90;;;;;;6254027;23;20515;-82
2021/07/16 03:26:46;;;;;;;8.37;7.67;;;15.80;99.90;;;;;;6253558;23;20408;-83
2021/07/16 03:29:13;;;;;;;9.10;8.27;;;15.70;99.90;;;;;;6251807;23;20421;-83
2021/07/16 03:31:40;;;;;;;8.30;7.57;;;15.80;99.90;;;;;;6248616;23;20436;-83
2021/07/16 03:34:07;;;;;;;10.13;9.10;;;15.80;99.90;;;;;;6249571;23;20795;-82
2021/07/16 03:36:34;;;;;;;8.93;8.23;;;15.70;99.90;;;;;;6251211;23;20411;-83
2021/07/16 03:39:01;;;;;;;9.30;8.60;;;15.70;99.90;;;;;;6251075;23;20412;-83
2021/07/16 03:41:29;;;;;;;8.73;7.80;;;15.70;99.90;;;;;;6250757;23;20418;-83
2021/07/16 03:43:56;;;;;;;9.97;9.07;;;15.70;99.90;;;;;;6250908;23;20452;-83
2021/07/16 03:46:27;;;;;;;8.73;7.83;;;15.80;99.90;;;;;;6250829;23;20417;-83
2021/07/16 03:48:55;;;;;;;10.70;9.60;;;15.80;99.90;;;;;;6250743;23;20473;-83
2021/07/16 03:51:22;;;;;;;10.30;9.30;;;15.80;99.90;;;;;;6251110;23;20412;-82
2021/07/16 03:53:48;;;;;;;9.70;8.80;;;15.90;99.90;;;;;;6250394;23;20438;-83
2021/07/16 03:56:15;;;;;;;10.43;9.63;;;15.90;99.90;;;;;;6250556;23;20408;-83
2021/07/16 03:58:45;;;;;;;10.40;9.43;;;16.00;99.90;;;;;;6251325;23;20416;-83
2021/07/16 04:01:12;;;;;;;9.87;8.97;;;16.00;99.90;;;;;;6251212;23;20444;-83
2021/07/16 04:03:39;;;;;;;10.37;9.50;;;16.10;99.90;;;;;;6250924;23;20456;-83
2021/07/16 04:06:06;;;;;;;10.03;9.13;;;16.10;99.90;;;;;;6251127;23;20408;-83
2021/07/16 04:08:35;;;;;;;11.37;9.50;;;16.10;99.90;;;;;;6251065;23;20419;-83
2021/07/16 04:11:02;;;;;;;9.70;8.90;;;16.10;99.90;;;;;;6250990;23;20416;-82
2021/07/16 04:13:29;;;;;;;10.07;9.17;;;16.10;99.90;;;;;;6250130;23;20425;-83
2021/07/16 04:15:57;;;;;;;10.43;9.53;;;16.10;99.90;;;;;;6250154;23;20418;-83
2021/07/16 04:18:24;;;;;;;10.13;9.20;;;16.20;99.90;;;;;;6250385;23;20412;-83
2021/07/16 04:20:51;;;;;;;13.30;11.43;;;16.20;99.90;;;;;;6251001;23;20408;-83
2021/07/16 04:23:17;;;;;;;10.43;9.33;;;16.30;99.90;;;;;;6250478;23;20444;-83
2021/07/16 04:25:44;;;;;;;9.80;8.97;;;16.30;99.90;;;;;;6250245;23;20414;-82
2021/07/16 04:28:11;;;;;;;8.80;8.10;;;16.30;99.90;;;;;;6250917;23;20416;-83
2021/07/16 04:30:38;;;;;;;9.23;8.43;;;16.30;99.90;;;;;;6250834;23;20412;-83
2021/07/16 04:33:08;;;;;;;10.73;9.30;;;16.40;99.90;;;;;;6250210;23;20417;-83
2021/07/16 04:35:35;;;;;;;11.33;10.23;;;16.40;99.90;;;;;;6250790;23;20419;-84
2021/07/16 04:38:01;;;;;;;8.93;8.10;;;16.50;99.90;;;;;;6250169;23;20740;-84
2021/07/16 04:40:30;;;;;;;9.50;8.70;;;16.50;99.90;;;;;;6249873;23;20925;-83
2021/07/16 04:42:57;;;;;;;11.93;9.50;;;16.60;99.90;;;;;;6249571;23;20421;-83
2021/07/16 04:45:24;;;;;;;9.70;8.03;;;16.60;99.90;;;;;;6250760;23;20439;-82
2021/07/16 04:47:51;;;;;;;9.20;8.40;;;16.60;99.90;;;;;;6251202;23;20404;-83
2021/07/16 04:50:20;;;;;;;9.43;8.53;;;16.60;99.90;;;;;;6250724;23;20414;-82
2021/07/16 04:52:49;;;;;;;9.20;8.37;;;16.60;99.90;;;;;;6250977;23;20407;-83
2021/07/16 04:55:16;;;;;;;7.90;7.20;;;16.60;99.90;;;;;;6251155;23;20428;-83
2021/07/16 04:57:44;;;;;;;9.87;9.07;;;16.60;99.90;;;;;;6251563;23;20400;-83
2021/07/16 05:00:12;;;;;;;8.97;8.27;;;16.60;99.90;;;;;;6250976;23;20411;-82
2021/07/16 05:02:39;;;;;;;9.17;8.37;;;16.70;99.90;;;;;;6250464;23;20405;-83
2021/07/16 05:05:07;;;;;;;9.50;8.60;;;16.70;99.90;;;;;;6250617;23;20459;-83
2021/07/16 05:07:35;;;;;;;7.83;7.13;;;16.70;99.90;;;;;;6251358;23;20413;-82
2021/07/16 05:10:03;;;;;;;8.73;8.03;;;16.70;99.90;;;;;;6250921;23;20419;-82
2021/07/16 05:12:30;;;;;;;8.23;7.60;;;16.80;99.90;;;;;;6250643;23;20930;-82
2021/07/16 05:14:56;;;;;;;10.97;9.87;;;16.90;99.90;;;;;;6251023;23;20489;-83
2021/07/16 05:17:23;;;;;;;9.43;8.53;;;16.90;99.90;;;;;;6250765;23;20414;-82
2021/07/16 05:19:50;;;;;;;9.27;8.47;;;16.90;99.90;;;;;;6250703;23;20398;-83
2021/07/16 05:22:16;;;;;;;11.00;9.37;;;17.00;99.90;;;;;;6250750;23;20419;-83
2021/07/16 05:24:44;;;;;;;11.23;10.23;;;17.00;99.90;;;;;;6250544;23;20454;-83
2021/07/16 05:27:11;;;;;;;12.30;11.20;;;17.00;99.90;;;;;;6250641;23;20476;-83
2021/07/16 05:29:38;;;;;;;12.93;11.73;;;17.00;99.90;;;;;;6250269;23;20410;-82
2021/07/16 05:32:05;;;;;;;13.70;12.30;;;17.10;99.90;;;;;;6250711;23;20410;-82
2021/07/16 05:34:32;;;;;;;12.83;11.40;;;17.10;99.90;;;;;;6250362;23;20429;-83
2021/07/16 05:36:59;;;;;;;12.60;11.40;;;17.20;99.90;;;;;;6250547;23;20405;-82
2021/07/16 05:39:27;;;;;;;13.40;12.10;;;17.30;99.90;;;;;;6251145;23;20718;-83
2021/07/16 05:41:55;;;;;;;13.17;11.77;;;17.40;99.90;;;;;;6250484;23;20411;-82
2021/07/16 05:44:22;;;;;;;11.77;10.27;;;17.50;99.90;;;;;;6249933;23;20460;-83
2021/07/16 05:46:49;;;;;;;12.57;11.47;;;17.60;99.90;;;;;;6250534;23;20411;-82
2021/07/16 05:49:16;;;;;;;11.90;10.90;;;17.70;99.90;;;;;;6250645;23;20754;-83
2021/07/16 05:51:42;;;;;;;12.67;11.47;;;17.70;99.90;;;;;;6249847;23;20411;-82
2021/07/16 05:54:09;;;;;;;13.70;12.03;;;17.80;99.90;;;;;;6249806;23;20431;-82
2021/07/16 05:56:40;;;;;;;13.23;11.87;;;17.70;99.90;;;;;;6249701;23;20415;-82
2021/07/16 05:59:08;;;;;;;13.67;12.27;;;17.70;99.90;;;;;;6249490;23;20951;-83
2021/07/16 06:01:35;;;;;;;13.00;11.77;;;17.80;99.90;;;;;;6250442;23;20414;-83
2021/07/16 06:04:09;;;;;;;12.73;11.43;;;17.80;99.90;;;;;;6249773;23;20446;-82
2021/07/16 06:06:36;;;;;;;14.10;11.83;;;17.90;99.90;;;;;;6250084;23;20403;-82
2021/07/16 06:09:04;;;;;;;12.53;11.33;;;18.00;99.90;;;;;;6250110;23;20897;-81
2021/07/16 06:11:32;;;;;;;13.60;12.30;;;18.10;99.90;;;;;;6249516;23;20434;-82
2021/07/16 06:13:59;;;;;;;13.00;11.80;;;18.20;99.90;;;;;;6249077;23;20960;-82
2021/07/16 06:16:27;;;;;;;14.47;13.07;;;18.20;99.90;;;;;;6249601;23;20412;-82
2021/07/16 06:18:53;;;;;;;13.47;12.10;;;18.30;99.90;;;;;;6249604;23;20430;-82
2021/07/16 06:21:20;;;;;;;15.53;14.03;;;18.30;99.90;;;;;;6249381;23;20400;-79
2021/07/16 06:23:47;;;;;;;14.30;12.87;;;18.30;99.90;;;;;;6249441;23;20457;-81
2021/07/16 06:26:16;;;;;;;14.20;12.90;;;18.30;99.90;;;;;;6249400;23;20417;-82
2021/07/16 06:28:43;;;;;;;12.83;11.63;;;18.30;99.90;;;;;;6249427;23;20422;-82
2021/07/16 06:31:10;;;;;;;13.50;12.20;;;18.30;99.90;;;;;;6249083;23;20417;-82
2021/07/16 06:33:39;;;;;;;12.40;11.20;;;18.30;99.90;;;;;;6248721;23;20436;-82
2021/07/16 06:36:06;;;;;;;15.87;13.27;;;18.30;99.90;;;;;;6249410;23;20473;-81
2021/07/16 06:38:33;;;;;;;14.60;13.20;;;18.30;99.90;;;;;;6248930;23;20412;-82
2021/07/16 06:41:01;;;;;;;15.20;13.90;;;18.30;99.90;;;;;;6248195;23;20759;-81
2021/07/16 06:43:28;;;;;;;14.10;12.60;;;18.20;99.90;;;;;;6247467;23;20457;-82
2021/07/16 06:45:55;;;;;;;14.13;12.87;;;18.30;99.90;;;;;;6248013;23;20430;-82
2021/07/16 06:48:22;;;;;;;13.80;12.40;;;18.30;99.90;;;;;;6248809;23;20396;-82
2021/07/16 06:50:50;;;;;;;11.87;10.87;;;18.40;99.90;;;;;;6248669;23;20706;-82
2021/07/16 06:53:17;;;;;;;12.67;11.50;;;18.50;99.90;;;;;;6248001;23;20423;-82
2021/07/16 06:55:43;;;;;;;12.13;11.03;;;18.60;99.90;;;;;;6247546;23;20418;-82
2021/07/16 06:58:10;;;;;;;12.93;11.83;;;18.60;99.90;;;;;;6248137;23;20725;-82
2021/07/16 07:00:37;;;;;;;14.93;13.73;;;18.60;99.90;;;;;;6247867;23;20446;-81
2021/07/16 07:03:04;;;;;;;13.80;12.47;;;18.50;99.90;;;;;;6247099;23;20410;-82
2021/07/16 07:05:31;;;;;;;13.30;12.10;;;18.50;99.90;;;;;;6247795;23;20438;-81
2021/07/16 07:07:59;;;;;;;13.70;12.60;;;18.60;99.90;;;;;;6247712;23;20414;-81
2021/07/16 07:10:25;;;;;;;13.20;12.07;;;18.60;99.90;;;;;;6247397;23;20415;-81
2021/07/16 07:12:52;;;;;;;14.20;12.90;;;18.60;99.90;;;;;;6247382;23;20421;-82
2021/07/16 07:15:19;;;;;;;13.47;12.37;;;18.60;99.90;;;;;;6249235;23;20493;-82
2021/07/16 07:17:46;;;;;;;13.37;12.20;;;18.70;99.90;;;;;;6250261;23;20419;-79
2021/07/16 07:20:13;;;;;;;13.03;12.03;;;18.70;99.90;;;;;;6250331;23;20498;-80
2021/07/16 07:22:40;;;;;;;14.33;12.90;;;18.80;99.90;;;;;;6251442;23;20445;-80
2021/07/16 07:25:10;;;;;;;13.50;12.27;;;19.00;99.90;;;;;;6250279;23;20970;-79
2021/07/16 07:27:36;;;;;;;11.27;10.27;;;19.10;99.90;;;;;;6251159;23;20756;-78
2021/07/16 07:30:04;;;;;;;12.57;11.43;;;19.10;99.90;;;;;;6251160;23;20410;-79
2021/07/16 07:32:31;;;;;;;12.00;11.10;;;19.20;99.90;;;;;;6250586;23;20421;-79
2021/07/16 07:35:11;;;;;;;11.50;10.50;;;19.20;99.90;;;;;;6250777;23;20423;-81
2021/07/16 07:38:08;;;;;;;10.70;9.83;;;19.30;99.90;;;;;;6250872;23;20419;-84
2021/07/16 07:40:37;;;;;;;10.83;9.90;;;19.30;99.90;;;;;;6249620;23;20415;-79
2021/07/16 07:43:06;;;;;;;10.80;9.90;;;19.30;99.90;;;;;;6249209;23;20417;-80
2021/07/16 07:45:33;;;;;;;9.80;9.00;;;19.40;99.90;;;;;;6249921;23;20439;-80
2021/07/16 07:48:00;;;;;;;9.20;8.47;;;19.40;99.90;;;;;;6249819;23;20414;-80
2021/07/16 07:50:27;;;;;;;9.60;8.80;;;19.50;99.90;;;;;;6250401;23;20412;-80
2021/07/16 07:52:54;;;;;;;9.00;8.30;;;19.60;99.90;;;;;;6249603;23;20410;-80
2021/07/16 07:55:24;;;;;;;8.47;7.73;;;19.80;99.90;;;;;;6250021;23;20431;-80
2021/07/16 07:57:54;;;;;;;8.83;8.17;;;19.90;99.90;;;;;;6250364;23;20457;-80
2021/07/16 08:00:24;;;;;;;9.57;7.90;;;20.10;99.90;;;;;;6250244;23;20392;-78
2021/07/16 08:02:50;;;;;;;7.33;6.80;;;20.20;99.90;;;;;;6251416;23;20412;-79
2021/07/16 08:05:17;;;;;;;8.77;7.97;;;20.30;99.90;;;;;;6251263;23;20454;-79
2021/07/16 08:07:44;;;;;;;8.77;8.07;;;20.40;99.90;;;;;;6251337;23;20418;-79
2021/07/16 08:10:13;;;;;;;8.13;7.53;;;20.50;99.90;;;;;;6249857;23;20418;-80
2021/07/16 08:12:40;;;;;;;9.27;8.40;;;20.60;99.90;;;;;;6250685;23;20408;-80
2021/07/16 08:15:11;;;;;;;8.33;7.27;;;20.60;99.90;;;;;;6249799;23;20423;-79
2021/07/16 08:17:38;;;;;;;9.07;8.33;;;20.60;99.90;;;;;;6249880;23;20704;-80
2021/07/16 08:20:08;;;;;;;8.13;7.43;;;20.60;99.90;;;;;;6250292;23;20430;-80
2021/07/16 08:22:35;;;;;;;7.67;7.17;;;20.50;99.90;;;;;;6252783;23;20411;-80
2021/07/16 08:25:01;;;;;;;7.23;6.73;;;20.50;99.90;;;;;;6252114;23;20451;-79
2021/07/16 08:27:28;;;;;;;7.93;7.33;;;20.40;99.90;;;;;;6251972;23;20408;-79
2021/07/16 08:29:55;;;;;;;8.70;7.83;;;20.30;99.90;;;;;;6252329;23;20411;-79
2021/07/16 08:32:23;;;;;;;8.00;7.43;;;20.30;99.90;;;;;;6251773;23;20415;-80
2021/07/16 08:34:50;;;;;;;7.23;6.70;;;20.40;99.90;;;;;;6251262;23;20425;-79
2021/07/16 08:37:17;;;;;;;6.30;5.80;;;20.40;99.90;;;;;;6251487;23;20415;-79
2021/07/16 08:39:43;;;;;;;6.77;6.27;;;20.40;99.90;;;;;;6251678;23;21055;-79
2021/07/16 08:42:13;;;;;;;7.77;7.07;;;20.40;99.90;;;;;;6250931;23;20408;-79
2021/07/16 08:44:43;;;;;;;7.07;6.47;;;20.40;99.90;;;;;;6250529;23;20450;-79
2021/07/16 08:47:11;;;;;;;7.33;6.73;;;20.50;99.90;;;;;;6251105;23;20430;-78
2021/07/16 08:49:40;;;;;;;7.20;6.70;;;20.50;99.90;;;;;;6251964;23;20477;-80
2021/07/16 08:52:08;;;;;;;8.70;8.00;;;20.50;99.90;;;;;;6250897;23;20531;-79
2021/07/16 08:54:38;;;;;;;7.33;6.83;;;20.40;99.90;;;;;;6250504;23;20420;-79
2021/07/16 08:57:05;;;;;;;6.60;6.10;;;20.30;99.90;;;;;;6251116;23;20424;-81
2021/07/16 08:59:32;;;;;;;8.30;7.67;;;20.30;99.90;;;;;;6252203;23;20414;-81
2021/07/16 09:02:01;;;;;;;7.20;6.80;;;20.30;99.90;;;;;;6250492;23;20422;-81
2021/07/16 09:04:28;;;;;;;7.97;7.27;;;20.30;99.90;;;;;;6250527;23;21057;-79
2021/07/16 09:06:57;;;;;;;8.20;7.60;;;20.40;99.90;;;;;;6250679;23;20412;-81
2021/07/16 09:09:25;;;;;;;7.83;7.30;;;20.50;99.90;;;;;;6251001;23;20416;-82
2021/07/16 09:11:54;;;;;;;7.27;6.67;;;20.60;99.90;;;;;;6250163;23;20510;-80
2021/07/16 09:14:24;;;;;;;7.07;6.47;;;20.70;99.90;;;;;;6250664;23;20496;-79
2021/07/16 09:16:57;;;;;;;6.80;6.10;;;20.80;99.90;;;;;;6250804;23;20403;-80
2021/07/16 09:19:33;;;;;;;6.37;5.80;;;21.00;99.90;;;;;;6250538;23;20412;-80
2021/07/16 09:22:04;;;;;;;6.70;6.17;;;21.00;99.90;;;;;;6250440;23;20397;-80
2021/07/16 09:24:31;;;;;;;7.10;6.57;;;20.90;99.90;;;;;;6250799;23;20438;-79
2021/07/16 09:26:58;;;;;;;6.60;6.10;;;21.00;99.90;;;;;;6250465;23;20888;-80
2021/07/16 09:29:28;;;;;;;6.87;6.37;;;20.90;99.90;;;;;;6251455;23;20420;-80
2021/07/16 09:32:07;;;;;;;7.00;6.40;;;21.00;99.90;;;;;;6250024;23;20914;-80
2021/07/16 09:34:34;;;;;;;6.53;6.13;;;20.90;99.90;;;;;;6251158;23;20466;-80
2021/07/16 09:37:10;;;;;;;7.20;6.70;;;20.90;99.90;;;;;;6250800;23;20404;-80
2021/07/16 09:39:37;;;;;;;6.47;6.07;;;20.90;99.90;;;;;;6250259;23;20408;-80
2021/07/16 09:42:05;;;;;;;6.80;6.30;;;21.00;99.90;;;;;;6250230;23;20744;-80
2021/07/16 09:44:33;;;;;;;7.83;7.03;;;21.10;99.90;;;;;;6250075;23;20443;-80
2021/07/16 09:47:07;;;;;;;5.53;5.13;;;21.10;99.90;;;;;;6250773;23;20419;-80
2021/07/16 09:49:34;;;;;;;5.70;5.30;;;21.20;99.90;;;;;;6250570;23;20479;-80
2021/07/16 09:52:08;;;;;;;6.23;5.73;;;21.40;99.90;;;;;;6249763;23;20409;-79
2021/07/16 09:54:36;;;;;;;5.83;5.43;;;21.60;99.90;;;;;;6250869;23;20429;-80
2021/07/16 09:57:02;;;;;;;5.00;4.67;;;21.80;99.90;;;;;;6251560;23;20729;-80
2021/07/16 09:59:29;;;;;;;5.70;5.30;;;22.00;99.90;;;;;;6251242;23;20417;-79
2021/07/16 10:01:56;;;;;;;5.83;5.23;;;22.10;99.90;;;;;;6250824;23;20406;-80
2021/07/16 10:04:26;;;;;;;7.73;5.30;;;22.10;99.90;;;;;;6250186;23;21109;-81
2021/07/16 10:06:54;;;;;;;6.47;6.00;;;22.20;99.90;;;;;;6251023;23;20445;-80
2021/07/16 10:09:24;;;;;;;7.07;6.57;;;22.30;99.90;;;;;;6251035;23;20416;-80
2021/07/16 10:11:52;;;;;;;5.37;5.07;;;22.40;99.90;;;;;;6250448;23;20431;-80
2021/07/16 10:14:20;;;;;;;5.50;5.00;;;22.50;99.90;;;;;;6250743;23;20430;-80
2021/07/16 10:16:48;;;;;;;5.23;4.93;;;22.50;99.90;;;;;;6251213;23;20409;-80
2021/07/16 10:19:17;;;;;;;6.03;5.63;;;22.50;99.90;;;;;;6250576;23;20413;-80
2021/07/16 10:21:44;;;;;;;6.23;5.77;;;22.50;99.90;;;;;;6250625;23;20912;-80
2021/07/16 10:24:12;;;;;;;5.83;5.43;;;22.40;99.90;;;;;;6250399;23;20439;-80
2021/07/16 10:26:42;;;;;;;6.13;5.73;;;22.40;99.90;;;;;;6249772;23;20448;-80
2021/07/16 10:29:33;;;;;;;4.50;4.20;;;22.50;99.90;;;;;;6251008;23;20408;-80
2021/07/16 10:32:00;;;;;;;4.37;4.07;;;22.60;99.90;;;;;;6250888;23;20459;-80
2021/07/16 10:34:37;;;;;;;8.10;5.10;;;22.60;99.90;;;;;;6250823;23;20495;-80
2021/07/16 10:37:08;;;;;;;5.63;5.13;;;22.60;99.90;;;;;;6251535;23;20397;-80
2021/07/16 10:39:47;;;;;;;4.60;4.30;;;22.40;99.90;;;;;;6251261;23;20389;-80
2021/07/16 10:42:43;;;;;;;5.10;4.70;;;22.40;99.90;;;;;;6250580;23;20395;-79
2021/07/16 10:45:12;;;;;;;3.50;3.30;;;22.50;99.90;;;;;;6246963;22;20529;-85
2021/07/16 10:47:41;;;;;;;3.50;3.30;;;22.70;99.90;;;;;;6252929;23;20456;-83
2021/07/16 10:50:09;;;;;;;3.97;3.77;;;22.70;99.90;;;;;;6252962;23;20716;-84
2021/07/16 10:52:43;;;;;;;3.83;3.53;;;22.80;99.90;;;;;;6252516;23;20403;-84
2021/07/16 10:55:11;;;;;;;3.43;3.23;;;23.00;99.90;;;;;;6253225;23;20420;-83
2021/07/16 10:57:43;;;;;;;3.60;3.40;;;23.10;99.90;;;;;;6252966;23;20403;-83
2021/07/16 11:00:13;;;;;;;4.30;4.10;;;23.30;99.90;;;;;;6253324;23;20722;-83
2021/07/16 11:02:47;;;;;;;2.30;2.20;;;23.40;99.90;;;;;;6252791;23;20414;-83
2021/07/16 11:05:51;;;;;;;2.83;2.63;;;23.60;99.90;;;;;;6252441;23;20530;-84
2021/07/16 11:08:54;;;;;;;3.20;3.00;;;23.70;99.90;;;;;;6253277;23;20873;-84
2021/07/16 11:11:23;;;;;;;2.97;2.80;;;24.10;99.90;;;;;;6253226;23;20431;-84
2021/07/16 11:13:54;;;;;;;3.60;3.40;;;24.60;99.90;;;;;;6253060;23;20424;-84
2021/07/16 11:16:47;;;;;;;3.97;3.67;;;25.00;99.90;;;;;;6253025;23;20401;-84
2021/07/16 11:19:23;;;;;;;2.07;1.97;;;25.60;98.30;;;;;;6253252;23;20398;-84
2021/07/16 11:22:07;;;;;;;2.30;2.20;;;26.10;96.20;;;;;;6253240;23;20394;-84
2021/07/16 11:24:35;;;;;;;2.50;2.33;;;26.40;94.80;;;;;;6252496;23;20431;-84
2021/07/16 11:27:06;;;;;;;2.33;2.23;;;26.70;94.20;;;;;;6251637;23;21033;-84
2021/07/16 11:29:36;;;;;;;2.53;2.20;;;27.10;94.80;;;;;;6253354;23;20393;-85
2021/07/16 11:32:06;;;;;;;2.37;2.27;;;27.60;94.30;;;;;;6252207;23;20920;-85
2021/07/16 11:34:33;;;;;;;2.73;2.53;;;27.90;94.40;;;;;;6252739;23;20445;-83
2021/07/16 11:37:00;;;;;;;3.00;2.80;;;28.00;93.30;;;;;;6253432;23;20473;-84
2021/07/16 11:39:28;;;;;;;2.73;2.53;;;27.60;92.40;;;;;;6252644;23;20411;-83
2021/07/16 11:41:55;;;;;;;2.57;2.47;;;27.10;93.10;;;;;;6252544;23;20417;-83
2021/07/16 11:44:30;;;;;;;3.07;2.87;;;26.80;93.60;;;;;;6252628;23;20440;-84
2021/07/16 11:46:58;;;;;;;2.70;2.50;;;26.90;94.10;;;;;;6252955;23;20445;-84
2021/07/16 11:49:27;;;;;;;2.63;2.43;;;27.20;93.10;;;;;;6251969;23;20419;-84
2021/07/16 11:52:01;;;;;;;3.10;2.90;;;27.20;92.70;;;;;;6252331;23;20734;-84
2021/07/16 11:54:30;;;;;;;3.07;2.77;;;26.90;92.60;;;;;;6252415;23;21025;-84
2021/07/16 11:56:58;;;;;;;2.13;2.03;;;26.80;93.80;;;;;;6254063;23;20408;-83
2021/07/16 11:59:27;;;;;;;2.70;2.50;;;27.00;93.20;;;;;;6254308;23;20422;-83
2021/07/16 12:02:09;;;;;;;2.47;2.37;;;27.30;93.10;;;;;;6254007;23;20414;-83
2021/07/16 12:04:36;;;;;;;2.10;2.00;;;27.80;92.40;;;;;;6254805;23;20425;-84
2021/07/16 12:07:04;;;;;;;3.77;2.30;;;28.30;91.40;;;;;;6254118;23;20452;-84
2021/07/16 12:09:32;;;;;;;2.33;2.23;;;28.70;90.60;;;;;;6256736;23;20411;-84
2021/07/16 12:12:04;;;;;;;1.83;1.73;;;28.80;90.20;;;;;;6256372;23;20412;-84
2021/07/16 12:14:45;;;;;;;1.60;1.50;;;29.30;90.40;;;;;;6252255;23;20445;-83
2021/07/16 12:17:13;;;;;;;2.00;1.90;;;29.80;86.80;;;;;;6255084;23;20388;-82
2021/07/16 12:19:40;;;;;;;1.40;1.30;;;29.90;85.80;;;;;;6254652;23;20415;-82
2021/07/16 12:22:08;;;;;;;2.03;1.93;;;30.20;86.00;;;;;;6254404;23;20415;-83
2021/07/16 12:24:35;;;;;;;1.57;1.47;;;30.70;84.30;;;;;;6254199;23;20426;-83
2021/07/16 12:27:05;;;;;;;3.10;2.17;;;31.00;81.20;;;;;;6253749;23;20510;-82
2021/07/16 12:29:32;;;;;;;1.83;1.73;;;31.00;78.00;;;;;;6254182;23;20446;-84
2021/07/16 12:32:48;;;;;;;2.20;2.10;;;30.70;78.80;;;;;;6256206;23;20406;-83
2021/07/16 12:35:21;;;;;;;1.97;1.87;;;30.00;79.50;;;;;;6234222;23;20450;-83
2021/07/16 12:37:50;;;;;;;2.57;2.37;;;29.40;81.20;;;;;;6256407;23;20435;-84
2021/07/16 12:40:21;;;;;;;1.80;1.70;;;28.90;82.20;;;;;;6257435;23;20414;-84
2021/07/16 12:43:05;;;;;;;2.10;2.00;;;28.50;85.10;;;;;;6255223;23;20426;-85
2021/07/16 12:45:37;;;;;;;1.80;1.70;;;28.10;83.70;;;;;;6255524;23;21148;-84
2021/07/16 12:52:06;;;;;;;1.70;1.60;;;27.40;87.40;;;;;;6246021;23;20433;-84
2021/07/16 12:54:33;;;;;;;3.03;2.53;;;27.10;90.60;;;;;;6248740;23;20967;-87